sensor_id;sensor_type;location;lat;lon;timestamp;pressure;altitude;pressure_sealevel;temperature;humidity
43326;BME280;28920;59.862;30.636;2023-02-18T14:58:17;51747.19;;;-147.45;87.02
43326;BME280;28920;59.862;30.636;2023-02-18T15:00:51;51763.37;;;-147.45;86.89
43326;BME280;28920;59.862;30.636;2023-02-18T15:14:13;51797.78;;;-147.45;86.39
43326;BME280;28920;59.862;30.636;2023-02-18T15:16:45;51749.22;;;-147.45;86.20
43326;BME280;28920;59.862;30.636;2023-02-18T15:19:14;51712.81;;;-147.45;85.86
43326;BME280;28920;59.862;30.636;2023-02-18T15:21:45;51771.47;;;-147.45;85.64
43326;BME280;28920;59.862;30.636;2023-02-18T15:24:23;51759.34;;;-147.45;84.85
43326;BME280;28920;59.862;30.636;2023-02-18T15:26:53;51755.28;;;-147.45;84.28
43326;BME280;28920;59.862;30.636;2023-02-18T15:29:25;51751.25;;;-147.45;84.26
43326;BME280;28920;59.862;30.636;2023-02-18T15:31:54;51741.12;;;-147.45;84.03
43326;BME280;28920;59.862;30.636;2023-02-18T15:34:32;51712.81;;;-147.45;83.56
43326;BME280;28920;59.862;30.636;2023-02-18T15:37:03;51712.81;;;-147.45;83.56
43326;BME280;28920;59.862;30.636;2023-02-18T15:39:32;60944.00;;;-147.45;100.00
43326;BME280;28920;59.862;30.636;2023-02-18T15:42:05;60944.00;;;-147.45;100.00
43326;BME280;28920;59.862;30.636;2023-02-18T15:44:35;60944.00;;;-147.45;100.00
43326;BME280;28920;59.862;30.636;2023-02-18T15:47:05;60944.00;;;-147.45;100.00
43326;BME280;28920;59.862;30.636;2023-02-18T15:49:36;60944.00;;;-147.45;100.00
43326;BME280;28920;59.862;30.636;2023-02-18T15:52:06;60944.00;;;-147.45;100.00
43326;BME280;28920;59.862;30.636;2023-02-18T15:54:38;60944.00;;;-147.45;100.00
43326;BME280;28920;59.862;30.636;2023-02-18T15:57:11;60944.00;;;-147.45;100.00
43326;BME280;28920;59.862;30.636;2023-02-18T15:59:45;60944.00;;;-147.45;100.00
43326;BME280;28920;59.862;30.636;2023-02-18T16:02:17;60944.00;;;-147.45;100.00
43326;BME280;28920;59.862;30.636;2023-02-18T16:04:50;60944.00;;;-147.45;100.00
43326;BME280;28920;59.862;30.636;2023-02-18T16:07:22;60944.00;;;-147.45;100.00
43326;BME280;28920;59.862;30.636;2023-02-18T16:10:07;60944.00;;;-147.45;100.00
43326;BME280;28920;59.862;30.636;2023-02-18T16:12:37;60944.00;;;-147.45;100.00
43326;BME280;28920;59.862;30.636;2023-02-18T16:15:13;60944.00;;;-147.45;100.00
43326;BME280;28920;59.862;30.636;2023-02-18T16:17:43;60944.00;;;-147.45;100.00
43326;BME280;28920;59.862;30.636;2023-02-18T16:20:21;60944.00;;;-147.45;100.00
43326;BME280;28920;59.862;30.636;2023-02-18T16:22:51;60944.00;;;-147.45;100.00
43326;BME280;28920;59.862;30.636;2023-02-18T16:25:23;60944.00;;;-147.45;100.00
43326;BME280;28920;59.862;30.636;2023-02-18T16:27:53;60944.00;;;-147.45;100.00
43326;BME280;28920;59.862;30.636;2023-02-18T16:30:24;60944.00;;;-147.45;100.00
43326;BME280;28920;59.862;30.636;2023-02-18T16:32:52;60944.00;;;-147.45;100.00
43326;BME280;28920;59.862;30.636;2023-02-18T16:35:21;60944.00;;;-147.45;100.00
43326;BME280;28920;59.862;30.636;2023-02-18T16:37:51;60944.00;;;-147.45;100.00
43326;BME280;28920;59.862;30.636;2023-02-18T16:40:24;60944.00;;;-147.45;100.00
43326;BME280;28920;59.862;30.636;2023-02-18T16:42:53;60944.00;;;-147.45;100.00
43326;BME280;28920;59.862;30.636;2023-02-18T16:45:33;60944.00;;;-147.45;100.00
43326;BME280;28920;59.862;30.636;2023-02-18T16:48:03;60944.00;;;-147.45;100.00
43326;BME280;28920;59.862;30.636;2023-02-18T16:50:32;60944.00;;;-147.45;100.00
43326;BME280;28920;59.862;30.636;2023-02-18T16:53:00;60944.00;;;-147.45;100.00
43326;BME280;28920;59.862;30.636;2023-02-18T16:55:29;60944.00;;;-147.45;100.00
43326;BME280;28920;59.862;30.636;2023-02-18T16:57:57;60944.00;;;-147.45;100.00
43326;BME280;28920;59.862;30.636;2023-02-18T17:00:26;60944.00;;;-147.45;100.00
43326;BME280;28920;59.862;30.636;2023-02-18T17:02:57;60944.00;;;-147.45;100.00
43326;BME280;28920;59.862;30.636;2023-02-18T17:05:27;60944.00;;;-147.45;100.00
43326;BME280;28920;59.862;30.636;2023-02-18T17:08:05;60944.00;;;-147.45;100.00
43326;BME280;28920;59.862;30.636;2023-02-18T17:10:39;60944.00;;;-147.45;100.00
43326;BME280;28920;59.862;30.636;2023-02-18T17:13:12;60944.00;;;-147.45;100.00
43326;BME280;28920;59.862;30.636;2023-02-18T17:15:42;60944.00;;;-147.45;100.00
43326;BME280;28920;59.862;30.636;2023-02-18T17:18:11;60944.00;;;-147.45;100.00
43326;BME280;28920;59.862;30.636;2023-02-18T17:20:39;60944.00;;;-147.45;100.00
43326;BME280;28920;59.862;30.636;2023-02-18T17:23:08;60944.00;;;-147.45;100.00
43326;BME280;28920;59.862;30.636;2023-02-18T17:25:39;60944.00;;;-147.45;100.00
43326;BME280;28920;59.862;30.636;2023-02-18T17:28:07;60944.00;;;-147.45;100.00
43326;BME280;28920;59.862;30.636;2023-02-18T17:30:38;60944.00;;;-147.45;100.00
43326;BME280;28920;59.862;30.636;2023-02-18T17:33:11;60944.00;;;-147.45;100.00
43326;BME280;28920;59.862;30.636;2023-02-18T17:35:41;60944.00;;;-147.45;100.00
43326;BME280;28920;59.862;30.636;2023-02-18T17:38:10;60944.00;;;-147.45;100.00
43326;BME280;28920;59.862;30.636;2023-02-18T17:40:38;60944.00;;;-147.45;100.00
43326;BME280;28920;59.862;30.636;2023-02-18T17:43:08;60944.00;;;-147.45;100.00
43326;BME280;28920;59.862;30.636;2023-02-18T17:45:41;60944.00;;;-147.45;100.00
43326;BME280;28920;59.862;30.636;2023-02-18T17:48:11;60944.00;;;-147.45;100.00
43326;BME280;28920;59.862;30.636;2023-02-18T17:50:39;60944.00;;;-147.45;100.00
43326;BME280;28920;59.862;30.636;2023-02-18T17:53:09;60944.00;;;-147.45;100.00
43326;BME280;28920;59.862;30.636;2023-02-18T17:55:38;60944.00;;;-147.45;100.00
43326;BME280;28920;59.862;30.636;2023-02-18T17:58:07;60944.00;;;-147.45;100.00
43326;BME280;28920;59.862;30.636;2023-02-18T18:00:37;60944.00;;;-147.45;100.00
43326;BME280;28920;59.862;30.636;2023-02-18T18:03:06;60944.00;;;-147.45;100.00
43326;BME280;28920;59.862;30.636;2023-02-18T18:05:37;60944.00;;;-147.45;100.00
43326;BME280;28920;59.862;30.636;2023-02-18T18:08:07;60944.00;;;-147.45;100.00
43326;BME280;28920;59.862;30.636;2023-02-18T18:10:36;60944.00;;;-147.45;100.00
43326;BME280;28920;59.862;30.636;2023-02-18T18:13:07;60944.00;;;-147.45;100.00
43326;BME280;28920;59.862;30.636;2023-02-18T18:15:38;60944.00;;;-147.45;100.00
43326;BME280;28920;59.862;30.636;2023-02-18T18:18:08;60944.00;;;-147.45;100.00
43326;BME280;28920;59.862;30.636;2023-02-18T18:20:40;60944.00;;;-147.45;100.00
43326;BME280;28920;59.862;30.636;2023-02-18T18:23:11;60944.00;;;-147.45;100.00
43326;BME280;28920;59.862;30.636;2023-02-18T18:25:41;60944.00;;;-147.45;100.00
43326;BME280;28920;59.862;30.636;2023-02-18T18:28:09;60944.00;;;-147.45;100.00
43326;BME280;28920;59.862;30.636;2023-02-18T18:30:40;60944.00;;;-147.45;100.00
43326;BME280;28920;59.862;30.636;2023-02-18T18:33:14;60944.00;;;-147.45;100.00
43326;BME280;28920;59.862;30.636;2023-02-18T18:35:45;60944.00;;;-147.45;100.00
43326;BME280;28920;59.862;30.636;2023-02-18T18:38:14;60944.00;;;-147.45;100.00
43326;BME280;28920;59.862;30.636;2023-02-18T18:40:43;60944.00;;;-147.45;100.00
43326;BME280;28920;59.862;30.636;2023-02-18T18:43:16;60944.00;;;-147.45;100.00
43326;BME280;28920;59.862;30.636;2023-02-18T18:45:45;60944.00;;;-147.45;100.00
43326;BME280;28920;59.862;30.636;2023-02-18T18:48:13;60944.00;;;-147.45;100.00
43326;BME280;28920;59.862;30.636;2023-02-18T18:50:43;60944.00;;;-147.45;100.00
43326;BME280;28920;59.862;30.636;2023-02-18T18:53:16;60944.00;;;-147.45;100.00
43326;BME280;28920;59.862;30.636;2023-02-18T18:55:45;60944.00;;;-147.45;100.00
43326;BME280;28920;59.862;30.636;2023-02-18T18:58:14;60944.00;;;-147.45;100.00
43326;BME280;28920;59.862;30.636;2023-02-18T19:00:48;60944.00;;;-147.45;100.00
43326;BME280;28920;59.862;30.636;2023-02-18T19:03:18;60944.00;;;-147.45;100.00
43326;BME280;28920;59.862;30.636;2023-02-18T19:05:48;60944.00;;;-147.45;100.00
43326;BME280;28920;59.862;30.636;2023-02-18T19:08:16;60944.00;;;-147.45;100.00
43326;BME280;28920;59.862;30.636;2023-02-18T19:10:47;60944.00;;;-147.45;100.00
43326;BME280;28920;59.862;30.636;2023-02-18T19:13:17;60944.00;;;-147.45;100.00
43326;BME280;28920;59.862;30.636;2023-02-18T19:15:46;60944.00;;;-147.45;100.00
43326;BME280;28920;59.862;30.636;2023-02-18T19:18:16;60944.00;;;-147.45;100.00
43326;BME280;28920;59.862;30.636;2023-02-18T19:20:45;60944.00;;;-147.45;100.00
43326;BME280;28920;59.862;30.636;2023-02-18T19:23:15;60944.00;;;-147.45;100.00
43326;BME280;28920;59.862;30.636;2023-02-18T19:25:43;60944.00;;;-147.45;100.00
43326;BME280;28920;59.862;30.636;2023-02-18T19:28:11;60944.00;;;-147.45;100.00
43326;BME280;28920;59.862;30.636;2023-02-18T19:30:40;60944.00;;;-147.45;100.00
43326;BME280;28920;59.862;30.636;2023-02-18T19:33:12;60944.00;;;-147.45;100.00
43326;BME280;28920;59.862;30.636;2023-02-18T19:35:42;60944.00;;;-147.45;100.00
43326;BME280;28920;59.862;30.636;2023-02-18T19:38:12;60944.00;;;-147.45;100.00
43326;BME280;28920;59.862;30.636;2023-02-18T19:40:43;60944.00;;;-147.45;100.00
43326;BME280;28920;59.862;30.636;2023-02-18T19:43:11;60944.00;;;-147.45;100.00
43326;BME280;28920;59.862;30.636;2023-02-18T19:45:40;60944.00;;;-147.45;100.00
43326;BME280;28920;59.862;30.636;2023-02-18T19:48:09;60944.00;;;-147.45;100.00
43326;BME280;28920;59.862;30.636;2023-02-18T19:50:38;60944.00;;;-147.45;100.00
43326;BME280;28920;59.862;30.636;2023-02-18T19:53:07;60944.00;;;-147.45;100.00
43326;BME280;28920;59.862;30.636;2023-02-18T19:55:35;60944.00;;;-147.45;100.00
43326;BME280;28920;59.862;30.636;2023-02-18T19:58:05;60944.00;;;-147.45;100.00
43326;BME280;28920;59.862;30.636;2023-02-18T20:00:33;60944.00;;;-147.45;100.00
43326;BME280;28920;59.862;30.636;2023-02-18T20:03:01;60944.00;;;-147.45;100.00
43326;BME280;28920;59.862;30.636;2023-02-18T20:05:29;60944.00;;;-147.45;100.00
43326;BME280;28920;59.862;30.636;2023-02-18T20:07:57;60944.00;;;-147.45;100.00
43326;BME280;28920;59.862;30.636;2023-02-18T20:10:25;60944.00;;;-147.45;100.00
43326;BME280;28920;59.862;30.636;2023-02-18T20:12:54;60944.00;;;-147.45;100.00
43326;BME280;28920;59.862;30.636;2023-02-18T20:15:24;60944.00;;;-147.45;100.00
43326;BME280;28920;59.862;30.636;2023-02-18T20:17:53;60944.00;;;-147.45;100.00
43326;BME280;28920;59.862;30.636;2023-02-18T20:20:21;60944.00;;;-147.45;100.00
43326;BME280;28920;59.862;30.636;2023-02-18T20:22:48;60944.00;;;-147.45;100.00
43326;BME280;28920;59.862;30.636;2023-02-18T20:25:17;60944.00;;;-147.45;100.00
43326;BME280;28920;59.862;30.636;2023-02-18T20:27:45;60944.00;;;-147.45;100.00
43326;BME280;28920;59.862;30.636;2023-02-18T20:30:13;60944.00;;;-147.45;100.00
43326;BME280;28920;59.862;30.636;2023-02-18T20:32:42;60944.00;;;-147.45;100.00
43326;BME280;28920;59.862;30.636;2023-02-18T20:35:10;60944.00;;;-147.45;100.00
43326;BME280;28920;59.862;30.636;2023-02-18T20:37:38;60944.00;;;-147.45;100.00
43326;BME280;28920;59.862;30.636;2023-02-18T20:40:07;60944.00;;;-147.45;100.00
43326;BME280;28920;59.862;30.636;2023-02-18T20:42:36;60944.00;;;-147.45;100.00
43326;BME280;28920;59.862;30.636;2023-02-18T20:45:04;60944.00;;;-147.45;100.00
43326;BME280;28920;59.862;30.636;2023-02-18T20:47:33;60944.00;;;-147.45;100.00
43326;BME280;28920;59.862;30.636;2023-02-18T20:50:02;60944.00;;;-147.45;100.00
43326;BME280;28920;59.862;30.636;2023-02-18T20:52:30;60944.00;;;-147.45;100.00
43326;BME280;28920;59.862;30.636;2023-02-18T20:54:59;60944.00;;;-147.45;100.00
43326;BME280;28920;59.862;30.636;2023-02-18T20:57:27;60944.00;;;-147.45;100.00
43326;BME280;28920;59.862;30.636;2023-02-18T20:59:55;60944.00;;;-147.45;100.00
43326;BME280;28920;59.862;30.636;2023-02-18T21:02:24;60944.00;;;-147.45;100.00
43326;BME280;28920;59.862;30.636;2023-02-18T21:04:52;60944.00;;;-147.45;100.00
43326;BME280;28920;59.862;30.636;2023-02-18T21:07:21;60944.00;;;-147.45;100.00
43326;BME280;28920;59.862;30.636;2023-02-18T21:09:49;60944.00;;;-147.45;100.00
43326;BME280;28920;59.862;30.636;2023-02-18T21:12:17;60944.00;;;-147.45;100.00
43326;BME280;28920;59.862;30.636;2023-02-18T21:14:45;60944.00;;;-147.45;100.00
43326;BME280;28920;59.862;30.636;2023-02-18T21:17:14;60944.00;;;-147.45;100.00
43326;BME280;28920;59.862;30.636;2023-02-18T21:19:42;60944.00;;;-147.45;100.00
43326;BME280;28920;59.862;30.636;2023-02-18T21:22:10;60944.00;;;-147.45;100.00
43326;BME280;28920;59.862;30.636;2023-02-18T21:24:40;60944.00;;;-147.45;100.00
43326;BME280;28920;59.862;30.636;2023-02-18T21:27:09;60944.00;;;-147.45;100.00
43326;BME280;28920;59.862;30.636;2023-02-18T21:29:37;60944.00;;;-147.45;100.00
43326;BME280;28920;59.862;30.636;2023-02-18T21:32:05;60944.00;;;-147.45;100.00
43326;BME280;28920;59.862;30.636;2023-02-18T21:34:33;60944.00;;;-147.45;100.00
43326;BME280;28920;59.862;30.636;2023-02-18T21:37:01;60944.00;;;-147.45;100.00
43326;BME280;28920;59.862;30.636;2023-02-18T21:39:29;60944.00;;;-147.45;100.00
43326;BME280;28920;59.862;30.636;2023-02-18T21:41:59;60944.00;;;-147.45;100.00
43326;BME280;28920;59.862;30.636;2023-02-18T21:44:29;60944.00;;;-147.45;100.00
43326;BME280;28920;59.862;30.636;2023-02-18T21:46:57;60944.00;;;-147.45;100.00
43326;BME280;28920;59.862;30.636;2023-02-18T21:49:25;60944.00;;;-147.45;100.00
43326;BME280;28920;59.862;30.636;2023-02-18T21:51:53;60944.00;;;-147.45;100.00
43326;BME280;28920;59.862;30.636;2023-02-18T21:54:27;60944.00;;;-147.45;100.00
43326;BME280;28920;59.862;30.636;2023-02-18T21:56:56;60944.00;;;-147.45;100.00
43326;BME280;28920;59.862;30.636;2023-02-18T21:59:27;60944.00;;;-147.45;100.00
43326;BME280;28920;59.862;30.636;2023-02-18T22:01:56;60944.00;;;-147.45;100.00
43326;BME280;28920;59.862;30.636;2023-02-18T22:04:26;60944.00;;;-147.45;100.00
43326;BME280;28920;59.862;30.636;2023-02-18T22:06:54;60944.00;;;-147.45;100.00
43326;BME280;28920;59.862;30.636;2023-02-18T22:09:22;60944.00;;;-147.45;100.00
43326;BME280;28920;59.862;30.636;2023-02-18T22:11:51;60944.00;;;-147.45;100.00
43326;BME280;28920;59.862;30.636;2023-02-18T22:14:19;60944.00;;;-147.45;100.00
43326;BME280;28920;59.862;30.636;2023-02-18T22:16:48;60944.00;;;-147.45;100.00
43326;BME280;28920;59.862;30.636;2023-02-18T22:19:17;60944.00;;;-147.45;100.00
43326;BME280;28920;59.862;30.636;2023-02-18T22:21:45;60944.00;;;-147.45;100.00
43326;BME280;28920;59.862;30.636;2023-02-18T22:24:14;60944.00;;;-147.45;100.00
43326;BME280;28920;59.862;30.636;2023-02-18T22:26:44;60944.00;;;-147.45;100.00
43326;BME280;28920;59.862;30.636;2023-02-18T22:29:13;60944.00;;;-147.45;100.00
43326;BME280;28920;59.862;30.636;2023-02-18T22:31:45;60944.00;;;-147.45;100.00
43326;BME280;28920;59.862;30.636;2023-02-18T22:34:15;60944.00;;;-147.45;100.00
43326;BME280;28920;59.862;30.636;2023-02-18T22:36:43;60944.00;;;-147.45;100.00
43326;BME280;28920;59.862;30.636;2023-02-18T22:39:12;60944.00;;;-147.45;100.00
43326;BME280;28920;59.862;30.636;2023-02-18T22:41:41;60944.00;;;-147.45;100.00
43326;BME280;28920;59.862;30.636;2023-02-18T22:44:11;60944.00;;;-147.45;100.00
43326;BME280;28920;59.862;30.636;2023-02-18T22:46:40;60944.00;;;-147.45;100.00
43326;BME280;28920;59.862;30.636;2023-02-18T22:49:08;60944.00;;;-147.45;100.00
43326;BME280;28920;59.862;30.636;2023-02-18T22:51:39;60944.00;;;-147.45;100.00
43326;BME280;28920;59.862;30.636;2023-02-18T22:54:10;60944.00;;;-147.45;100.00
43326;BME280;28920;59.862;30.636;2023-02-18T22:56:39;60944.00;;;-147.45;100.00
43326;BME280;28920;59.862;30.636;2023-02-18T22:59:06;60944.00;;;-147.45;100.00
43326;BME280;28920;59.862;30.636;2023-02-18T23:01:37;60944.00;;;-147.45;100.00
43326;BME280;28920;59.862;30.636;2023-02-18T23:04:07;60944.00;;;-147.45;100.00
43326;BME280;28920;59.862;30.636;2023-02-18T23:06:38;60944.00;;;-147.45;100.00
43326;BME280;28920;59.862;30.636;2023-02-18T23:09:07;60944.00;;;-147.45;100.00
43326;BME280;28920;59.862;30.636;2023-02-18T23:11:35;60944.00;;;-147.45;100.00
43326;BME280;28920;59.862;30.636;2023-02-18T23:14:03;60944.00;;;-147.45;100.00
43326;BME280;28920;59.862;30.636;2023-02-18T23:16:48;60944.00;;;-147.45;100.00
43326;BME280;28920;59.862;30.636;2023-02-18T23:19:35;60944.00;;;-147.45;100.00
43326;BME280;28920;59.862;30.636;2023-02-18T23:22:06;60944.00;;;-147.45;100.00
43326;BME280;28920;59.862;30.636;2023-02-18T23:24:35;60944.00;;;-147.45;100.00
43326;BME280;28920;59.862;30.636;2023-02-18T23:27:05;60944.00;;;-147.45;100.00
43326;BME280;28920;59.862;30.636;2023-02-18T23:29:34;60944.00;;;-147.45;100.00
43326;BME280;28920;59.862;30.636;2023-02-18T23:32:02;60944.00;;;-147.45;100.00
43326;BME280;28920;59.862;30.636;2023-02-18T23:34:31;60944.00;;;-147.45;100.00
43326;BME280;28920;59.862;30.636;2023-02-18T23:36:59;60944.00;;;-147.45;100.00
43326;BME280;28920;59.862;30.636;2023-02-18T23:39:29;60944.00;;;-147.45;100.00
43326;BME280;28920;59.862;30.636;2023-02-18T23:41:57;60944.00;;;-147.45;100.00
43326;BME280;28920;59.862;30.636;2023-02-18T23:44:25;60944.00;;;-147.45;100.00
43326;BME280;28920;59.862;30.636;2023-02-18T23:46:54;60944.00;;;-147.45;100.00
43326;BME280;28920;59.862;30.636;2023-02-18T23:49:24;60944.00;;;-147.45;100.00
43326;BME280;28920;59.862;30.636;2023-02-18T23:51:53;60944.00;;;-147.45;100.00
43326;BME280;28920;59.862;30.636;2023-02-18T23:54:22;60944.00;;;-147.45;100.00
43326;BME280;28920;59.862;30.636;2023-02-18T23:56:51;60944.00;;;-147.45;100.00
43326;BME280;28920;59.862;30.636;2023-02-18T23:59:19;60944.00;;;-147.45;100.00
